sensor_id;sensor_type;location;lat;lon;timestamp;temperature;humidity
62555;DHT22;48610;52.144;8.624;2023-04-03T00:02:43;4.50;99.90
62555;DHT22;48610;52.144;8.624;2023-04-03T00:05:44;4.60;99.90
62555;DHT22;48610;52.144;8.624;2023-04-03T00:08:45;4.60;99.90
62555;DHT22;48610;52.144;8.624;2023-04-03T00:11:46;4.50;99.90
62555;DHT22;48610;52.144;8.624;2023-04-03T00:14:46;4.20;99.90
62555;DHT22;48610;52.144;8.624;2023-04-03T00:17:47;4.20;99.90
62555;DHT22;48610;52.144;8.624;2023-04-03T00:20:47;4.30;99.90
62555;DHT22;48610;52.144;8.624;2023-04-03T00:23:48;4.30;99.90
62555;DHT22;48610;52.144;8.624;2023-04-03T00:26:49;4.20;99.90
62555;DHT22;48610;52.144;8.624;2023-04-03T00:29:49;4.20;99.90
62555;DHT22;48610;52.144;8.624;2023-04-03T00:32:51;4.10;99.90
62555;DHT22;48610;52.144;8.624;2023-04-03T00:35:52;4.00;99.90
62555;DHT22;48610;52.144;8.624;2023-04-03T00:38:52;4.10;99.90
62555;DHT22;48610;52.144;8.624;2023-04-03T00:41:53;3.90;99.90
62555;DHT22;48610;52.144;8.624;2023-04-03T00:47:58;4.20;99.90
62555;DHT22;48610;52.144;8.624;2023-04-03T00:51:01;4.20;99.90
62555;DHT22;48610;52.144;8.624;2023-04-03T00:54:05;4.20;99.90
62555;DHT22;48610;52.144;8.624;2023-04-03T00:57:07;4.20;99.90
62555;DHT22;48610;52.144;8.624;2023-04-03T01:00:12;3.90;99.90
62555;DHT22;48610;52.144;8.624;2023-04-03T01:03:13;3.60;99.90
62555;DHT22;48610;52.144;8.624;2023-04-03T01:06:16;3.60;99.90
62555;DHT22;48610;52.144;8.624;2023-04-03T01:09:17;3.60;99.90
62555;DHT22;48610;52.144;8.624;2023-04-03T01:12:28;3.60;99.90
62555;DHT22;48610;52.144;8.624;2023-04-03T01:15:29;3.60;99.90
62555;DHT22;48610;52.144;8.624;2023-04-03T01:18:38;3.60;99.90
62555;DHT22;48610;52.144;8.624;2023-04-03T01:21:56;3.60;99.90
62555;DHT22;48610;52.144;8.624;2023-04-03T01:25:03;3.70;99.90
62555;DHT22;48610;52.144;8.624;2023-04-03T01:28:04;3.60;99.90
62555;DHT22;48610;52.144;8.624;2023-04-03T01:31:29;3.50;99.90
62555;DHT22;48610;52.144;8.624;2023-04-03T01:34:31;3.60;99.90
62555;DHT22;48610;52.144;8.624;2023-04-03T01:37:32;3.60;99.90
62555;DHT22;48610;52.144;8.624;2023-04-03T01:40:32;3.80;99.90
62555;DHT22;48610;52.144;8.624;2023-04-03T01:43:33;3.80;99.90
62555;DHT22;48610;52.144;8.624;2023-04-03T01:46:34;3.80;99.90
62555;DHT22;48610;52.144;8.624;2023-04-03T01:49:35;3.60;99.90
62555;DHT22;48610;52.144;8.624;2023-04-03T01:52:35;3.40;99.90
62555;DHT22;48610;52.144;8.624;2023-04-03T01:55:36;3.20;99.90
62555;DHT22;48610;52.144;8.624;2023-04-03T01:58:36;3.30;99.90
62555;DHT22;48610;52.144;8.624;2023-04-03T02:01:37;3.30;99.90
62555;DHT22;48610;52.144;8.624;2023-04-03T02:04:38;3.30;99.90
62555;DHT22;48610;52.144;8.624;2023-04-03T02:07:38;3.20;99.90
62555;DHT22;48610;52.144;8.624;2023-04-03T02:10:39;3.20;99.90
62555;DHT22;48610;52.144;8.624;2023-04-03T02:13:39;3.30;99.90
62555;DHT22;48610;52.144;8.624;2023-04-03T02:16:40;3.20;99.90
62555;DHT22;48610;52.144;8.624;2023-04-03T02:19:41;3.00;99.90
62555;DHT22;48610;52.144;8.624;2023-04-03T02:22:42;2.90;99.90
62555;DHT22;48610;52.144;8.624;2023-04-03T02:25:42;3.10;99.90
62555;DHT22;48610;52.144;8.624;2023-04-03T02:28:43;3.00;99.90
62555;DHT22;48610;52.144;8.624;2023-04-03T02:31:43;2.90;99.90
62555;DHT22;48610;52.144;8.624;2023-04-03T02:34:44;2.80;99.90
62555;DHT22;48610;52.144;8.624;2023-04-03T02:37:45;2.80;99.90
62555;DHT22;48610;52.144;8.624;2023-04-03T02:40:45;2.80;99.90
62555;DHT22;48610;52.144;8.624;2023-04-03T02:43:46;2.70;99.90
62555;DHT22;48610;52.144;8.624;2023-04-03T02:46:46;2.80;99.90
62555;DHT22;48610;52.144;8.624;2023-04-03T02:49:47;2.80;99.90
62555;DHT22;48610;52.144;8.624;2023-04-03T02:52:47;2.60;99.90
62555;DHT22;48610;52.144;8.624;2023-04-03T02:55:48;2.50;99.90
62555;DHT22;48610;52.144;8.624;2023-04-03T02:58:49;2.50;99.90
62555;DHT22;48610;52.144;8.624;2023-04-03T03:01:50;2.40;99.90
62555;DHT22;48610;52.144;8.624;2023-04-03T03:04:50;2.30;99.90
62555;DHT22;48610;52.144;8.624;2023-04-03T03:07:51;2.10;99.90
62555;DHT22;48610;52.144;8.624;2023-04-03T03:10:52;2.10;99.90
62555;DHT22;48610;52.144;8.624;2023-04-03T03:13:52;2.00;99.90
62555;DHT22;48610;52.144;8.624;2023-04-03T03:16:53;2.00;99.90
62555;DHT22;48610;52.144;8.624;2023-04-03T03:19:53;1.90;99.90
62555;DHT22;48610;52.144;8.624;2023-04-03T03:22:54;1.90;99.90
62555;DHT22;48610;52.144;8.624;2023-04-03T03:25:56;1.90;99.90
62555;DHT22;48610;52.144;8.624;2023-04-03T03:28:57;1.90;99.90
62555;DHT22;48610;52.144;8.624;2023-04-03T03:31:57;1.90;99.90
62555;DHT22;48610;52.144;8.624;2023-04-03T03:34:58;1.90;99.90
62555;DHT22;48610;52.144;8.624;2023-04-03T03:37:58;1.90;99.90
62555;DHT22;48610;52.144;8.624;2023-04-03T03:40:59;1.80;99.90
62555;DHT22;48610;52.144;8.624;2023-04-03T03:44:00;1.70;99.90
62555;DHT22;48610;52.144;8.624;2023-04-03T03:47:00;1.60;99.90
62555;DHT22;48610;52.144;8.624;2023-04-03T03:50:01;1.70;99.90
62555;DHT22;48610;52.144;8.624;2023-04-03T03:53:02;1.60;99.90
62555;DHT22;48610;52.144;8.624;2023-04-03T03:56:03;1.50;99.90
62555;DHT22;48610;52.144;8.624;2023-04-03T03:59:04;1.40;99.90
62555;DHT22;48610;52.144;8.624;2023-04-03T04:02:04;1.40;99.90
62555;DHT22;48610;52.144;8.624;2023-04-03T04:05:05;1.40;99.90
62555;DHT22;48610;52.144;8.624;2023-04-03T04:08:06;1.30;99.90
62555;DHT22;48610;52.144;8.624;2023-04-03T04:11:07;1.40;99.90
62555;DHT22;48610;52.144;8.624;2023-04-03T04:14:08;1.40;99.90
62555;DHT22;48610;52.144;8.624;2023-04-03T04:17:10;1.20;99.90
62555;DHT22;48610;52.144;8.624;2023-04-03T04:20:11;1.20;99.90
62555;DHT22;48610;52.144;8.624;2023-04-03T04:23:12;1.20;99.90
62555;DHT22;48610;52.144;8.624;2023-04-03T04:26:13;1.00;99.90
62555;DHT22;48610;52.144;8.624;2023-04-03T04:29:13;0.90;99.90
62555;DHT22;48610;52.144;8.624;2023-04-03T04:32:14;1.00;99.90
62555;DHT22;48610;52.144;8.624;2023-04-03T04:35:14;1.00;99.90
62555;DHT22;48610;52.144;8.624;2023-04-03T04:38:15;0.90;99.90
62555;DHT22;48610;52.144;8.624;2023-04-03T04:41:15;0.90;99.90
62555;DHT22;48610;52.144;8.624;2023-04-03T04:44:16;0.90;99.90
62555;DHT22;48610;52.144;8.624;2023-04-03T04:47:16;0.90;99.90
62555;DHT22;48610;52.144;8.624;2023-04-03T04:50:17;0.90;99.90
62555;DHT22;48610;52.144;8.624;2023-04-03T04:53:18;0.80;99.90
62555;DHT22;48610;52.144;8.624;2023-04-03T04:56:18;0.80;99.90
62555;DHT22;48610;52.144;8.624;2023-04-03T04:59:19;0.80;99.90
62555;DHT22;48610;52.144;8.624;2023-04-03T05:02:19;0.80;99.90
62555;DHT22;48610;52.144;8.624;2023-04-03T05:05:20;0.80;99.90
62555;DHT22;48610;52.144;8.624;2023-04-03T05:08:21;0.80;99.90
62555;DHT22;48610;52.144;8.624;2023-04-03T05:11:21;0.90;99.90
62555;DHT22;48610;52.144;8.624;2023-04-03T05:14:22;0.90;99.90
62555;DHT22;48610;52.144;8.624;2023-04-03T05:17:23;0.90;99.90
62555;DHT22;48610;52.144;8.624;2023-04-03T05:20:24;1.00;99.90
62555;DHT22;48610;52.144;8.624;2023-04-03T05:23:25;1.10;99.90
62555;DHT22;48610;52.144;8.624;2023-04-03T05:26:26;1.10;99.90
62555;DHT22;48610;52.144;8.624;2023-04-03T05:29:26;1.00;99.90
62555;DHT22;48610;52.144;8.624;2023-04-03T05:32:27;0.90;99.90
62555;DHT22;48610;52.144;8.624;2023-04-03T05:35:27;0.80;99.90
62555;DHT22;48610;52.144;8.624;2023-04-03T05:38:28;0.90;99.90
62555;DHT22;48610;52.144;8.624;2023-04-03T05:41:29;1.00;99.90
62555;DHT22;48610;52.144;8.624;2023-04-03T05:44:29;1.00;99.90
62555;DHT22;48610;52.144;8.624;2023-04-03T05:47:30;1.00;99.90
62555;DHT22;48610;52.144;8.624;2023-04-03T05:50:31;1.10;99.90
62555;DHT22;48610;52.144;8.624;2023-04-03T05:53:34;1.20;99.90
62555;DHT22;48610;52.144;8.624;2023-04-03T05:56:36;1.30;99.90
62555;DHT22;48610;52.144;8.624;2023-04-03T05:59:37;1.30;99.90
62555;DHT22;48610;52.144;8.624;2023-04-03T06:02:37;1.20;99.90
62555;DHT22;48610;52.144;8.624;2023-04-03T06:05:38;1.30;99.90
62555;DHT22;48610;52.144;8.624;2023-04-03T06:08:38;1.60;99.90
62555;DHT22;48610;52.144;8.624;2023-04-03T06:11:39;1.70;99.90
62555;DHT22;48610;52.144;8.624;2023-04-03T06:14:40;1.60;99.90
62555;DHT22;48610;52.144;8.624;2023-04-03T06:17:41;1.60;99.90
62555;DHT22;48610;52.144;8.624;2023-04-03T06:20:42;1.70;99.90
62555;DHT22;48610;52.144;8.624;2023-04-03T06:23:42;1.80;99.90
62555;DHT22;48610;52.144;8.624;2023-04-03T06:26:43;1.90;99.90
62555;DHT22;48610;52.144;8.624;2023-04-03T06:29:44;1.90;99.90
62555;DHT22;48610;52.144;8.624;2023-04-03T06:32:45;2.20;99.90
62555;DHT22;48610;52.144;8.624;2023-04-03T06:35:46;2.30;99.90
62555;DHT22;48610;52.144;8.624;2023-04-03T06:38:47;2.40;99.90
62555;DHT22;48610;52.144;8.624;2023-04-03T06:41:48;2.70;99.90
62555;DHT22;48610;52.144;8.624;2023-04-03T06:44:48;2.80;99.90
62555;DHT22;48610;52.144;8.624;2023-04-03T06:47:49;2.80;99.90
62555;DHT22;48610;52.144;8.624;2023-04-03T06:50:50;3.00;99.90
62555;DHT22;48610;52.144;8.624;2023-04-03T06:53:52;3.00;99.90
62555;DHT22;48610;52.144;8.624;2023-04-03T06:56:53;3.20;99.90
62555;DHT22;48610;52.144;8.624;2023-04-03T06:59:53;3.40;99.90
62555;DHT22;48610;52.144;8.624;2023-04-03T07:02:54;3.60;99.90
62555;DHT22;48610;52.144;8.624;2023-04-03T07:05:56;3.90;99.90
62555;DHT22;48610;52.144;8.624;2023-04-03T07:08:57;3.90;99.90
62555;DHT22;48610;52.144;8.624;2023-04-03T07:11:57;3.90;99.90
62555;DHT22;48610;52.144;8.624;2023-04-03T07:14:58;3.90;99.90
62555;DHT22;48610;52.144;8.624;2023-04-03T07:17:59;4.30;99.90
62555;DHT22;48610;52.144;8.624;2023-04-03T07:21:00;4.50;99.90
62555;DHT22;48610;52.144;8.624;2023-04-03T07:24:01;4.50;99.90
62555;DHT22;48610;52.144;8.624;2023-04-03T07:27:02;4.30;99.90
62555;DHT22;48610;52.144;8.624;2023-04-03T07:30:03;4.60;99.90
62555;DHT22;48610;52.144;8.624;2023-04-03T07:33:05;4.80;99.90
62555;DHT22;48610;52.144;8.624;2023-04-03T07:36:08;4.90;99.90
62555;DHT22;48610;52.144;8.624;2023-04-03T07:39:08;5.20;99.90
62555;DHT22;48610;52.144;8.624;2023-04-03T07:42:09;5.40;99.90
62555;DHT22;48610;52.144;8.624;2023-04-03T07:45:10;5.50;99.90
62555;DHT22;48610;52.144;8.624;2023-04-03T07:48:11;5.70;99.90
62555;DHT22;48610;52.144;8.624;2023-04-03T07:51:13;5.90;99.90
62555;DHT22;48610;52.144;8.624;2023-04-03T07:54:14;5.80;99.90
62555;DHT22;48610;52.144;8.624;2023-04-03T07:57:15;5.70;99.90
62555;DHT22;48610;52.144;8.624;2023-04-03T08:00:17;5.60;99.90
62555;DHT22;48610;52.144;8.624;2023-04-03T08:03:18;5.70;99.90
62555;DHT22;48610;52.144;8.624;2023-04-03T08:06:19;5.80;99.90
62555;DHT22;48610;52.144;8.624;2023-04-03T08:09:19;5.90;99.90
62555;DHT22;48610;52.144;8.624;2023-04-03T08:12:20;5.60;99.90
62555;DHT22;48610;52.144;8.624;2023-04-03T08:15:20;5.80;99.90
62555;DHT22;48610;52.144;8.624;2023-04-03T08:18:21;5.90;99.90
62555;DHT22;48610;52.144;8.624;2023-04-03T08:21:24;6.10;99.90
62555;DHT22;48610;52.144;8.624;2023-04-03T08:24:26;6.00;99.90
62555;DHT22;48610;52.144;8.624;2023-04-03T08:27:27;5.90;99.90
62555;DHT22;48610;52.144;8.624;2023-04-03T08:30:27;6.00;99.90
62555;DHT22;48610;52.144;8.624;2023-04-03T08:33:28;6.20;99.90
62555;DHT22;48610;52.144;8.624;2023-04-03T08:36:29;6.30;99.90
62555;DHT22;48610;52.144;8.624;2023-04-03T08:39:30;6.20;99.90
62555;DHT22;48610;52.144;8.624;2023-04-03T08:45:57;6.60;99.90
62555;DHT22;48610;52.144;8.624;2023-04-03T08:49:01;6.50;99.90
62555;DHT22;48610;52.144;8.624;2023-04-03T08:52:10;6.50;99.90
62555;DHT22;48610;52.144;8.624;2023-04-03T08:55:34;6.60;99.30
62555;DHT22;48610;52.144;8.624;2023-04-03T08:58:58;6.80;98.40
62555;DHT22;48610;52.144;8.624;2023-04-03T09:02:03;6.90;97.00
62555;DHT22;48610;52.144;8.624;2023-04-03T09:15:26;7.20;98.60
62555;DHT22;48610;52.144;8.624;2023-04-03T09:18:33;6.70;99.90
62555;DHT22;48610;52.144;8.624;2023-04-03T09:21:38;6.60;99.90
62555;DHT22;48610;52.144;8.624;2023-04-03T09:24:39;6.80;97.90
62555;DHT22;48610;52.144;8.624;2023-04-03T09:27:40;7.10;96.30
62555;DHT22;48610;52.144;8.624;2023-04-03T09:30:41;6.70;96.90
62555;DHT22;48610;52.144;8.624;2023-04-03T09:33:42;6.70;99.10
62555;DHT22;48610;52.144;8.624;2023-04-03T09:36:45;7.10;96.60
62555;DHT22;48610;52.144;8.624;2023-04-03T09:39:55;7.40;98.20
62555;DHT22;48610;52.144;8.624;2023-04-03T09:43:01;7.70;96.40
62555;DHT22;48610;52.144;8.624;2023-04-03T09:46:30;8.00;96.20
62555;DHT22;48610;52.144;8.624;2023-04-03T09:49:31;8.10;96.80
62555;DHT22;48610;52.144;8.624;2023-04-03T09:52:31;7.70;98.90
62555;DHT22;48610;52.144;8.624;2023-04-03T09:55:32;8.00;99.00
62555;DHT22;48610;52.144;8.624;2023-04-03T09:58:40;7.70;97.80
62555;DHT22;48610;52.144;8.624;2023-04-03T10:01:43;8.40;99.50
62555;DHT22;48610;52.144;8.624;2023-04-03T10:04:46;8.30;96.30
62555;DHT22;48610;52.144;8.624;2023-04-03T10:07:46;8.10;97.70
62555;DHT22;48610;52.144;8.624;2023-04-03T10:10:48;7.90;95.50
62555;DHT22;48610;52.144;8.624;2023-04-03T10:14:16;8.00;97.10
62555;DHT22;48610;52.144;8.624;2023-04-03T10:20:44;7.20;96.20
62555;DHT22;48610;52.144;8.624;2023-04-03T10:23:59;8.40;99.90
62555;DHT22;48610;52.144;8.624;2023-04-03T10:27:05;8.50;96.40
62555;DHT22;48610;52.144;8.624;2023-04-03T10:33:48;9.20;98.50
62555;DHT22;48610;52.144;8.624;2023-04-03T10:37:13;9.20;95.60
62555;DHT22;48610;52.144;8.624;2023-04-03T10:40:29;8.20;95.50
62555;DHT22;48610;52.144;8.624;2023-04-03T10:43:57;7.90;93.60
62555;DHT22;48610;52.144;8.624;2023-04-03T10:50:30;8.00;94.40
62555;DHT22;48610;52.144;8.624;2023-04-03T10:53:52;8.00;95.40
62555;DHT22;48610;52.144;8.624;2023-04-03T10:57:01;8.00;93.60
62555;DHT22;48610;52.144;8.624;2023-04-03T11:00:07;8.00;95.10
62555;DHT22;48610;52.144;8.624;2023-04-03T11:03:24;8.10;95.30
62555;DHT22;48610;52.144;8.624;2023-04-03T11:06:35;8.10;94.40
62555;DHT22;48610;52.144;8.624;2023-04-03T11:09:41;7.90;94.20
62555;DHT22;48610;52.144;8.624;2023-04-03T11:16:16;7.80;95.90
62555;DHT22;48610;52.144;8.624;2023-04-03T11:19:29;7.80;94.60
62555;DHT22;48610;52.144;8.624;2023-04-03T11:22:36;7.70;95.90
62555;DHT22;48610;52.144;8.624;2023-04-03T11:25:41;7.60;94.20
62555;DHT22;48610;52.144;8.624;2023-04-03T11:28:43;7.40;95.40
62555;DHT22;48610;52.144;8.624;2023-04-03T11:32:18;7.30;94.20
62555;DHT22;48610;52.144;8.624;2023-04-03T11:35:22;7.70;95.60
62555;DHT22;48610;52.144;8.624;2023-04-03T11:38:28;7.70;95.70
62555;DHT22;48610;52.144;8.624;2023-04-03T11:41:31;7.90;94.70
62555;DHT22;48610;52.144;8.624;2023-04-03T11:44:36;8.70;96.70
62555;DHT22;48610;52.144;8.624;2023-04-03T11:47:58;9.60;92.70
62555;DHT22;48610;52.144;8.624;2023-04-03T11:57:44;8.80;91.00
62555;DHT22;48610;52.144;8.624;2023-04-03T12:03:56;8.90;91.00
62555;DHT22;48610;52.144;8.624;2023-04-03T12:07:23;8.80;90.10
62555;DHT22;48610;52.144;8.624;2023-04-03T12:10:24;8.70;87.50
62555;DHT22;48610;52.144;8.624;2023-04-03T12:13:24;8.80;90.40
62555;DHT22;48610;52.144;8.624;2023-04-03T12:19:39;9.70;94.20
62555;DHT22;48610;52.144;8.624;2023-04-03T12:23:23;9.90;82.80
62555;DHT22;48610;52.144;8.624;2023-04-03T12:26:36;9.30;84.80
62555;DHT22;48610;52.144;8.624;2023-04-03T12:29:53;8.90;90.10
62555;DHT22;48610;52.144;8.624;2023-04-03T12:33:10;8.80;90.00
62555;DHT22;48610;52.144;8.624;2023-04-03T12:36:26;8.70;90.30
62555;DHT22;48610;52.144;8.624;2023-04-03T12:39:54;8.80;86.70
62555;DHT22;48610;52.144;8.624;2023-04-03T12:46:34;8.90;89.30
62555;DHT22;48610;52.144;8.624;2023-04-03T12:49:39;8.50;89.90
62555;DHT22;48610;52.144;8.624;2023-04-03T12:52:45;8.60;87.00
62555;DHT22;48610;52.144;8.624;2023-04-03T12:55:54;8.60;86.80
62555;DHT22;48610;52.144;8.624;2023-04-03T12:59:16;8.80;86.80
62555;DHT22;48610;52.144;8.624;2023-04-03T13:02:21;8.80;85.80
62555;DHT22;48610;52.144;8.624;2023-04-03T13:05:23;8.40;86.10
62555;DHT22;48610;52.144;8.624;2023-04-03T13:08:24;8.50;86.50
62555;DHT22;48610;52.144;8.624;2023-04-03T13:12:00;8.60;87.20
62555;DHT22;48610;52.144;8.624;2023-04-03T13:14:55;8.60;84.70
62555;DHT22;48610;52.144;8.624;2023-04-03T13:17:56;8.40;84.20
62555;DHT22;48610;52.144;8.624;2023-04-03T13:21:22;8.70;89.00
62555;DHT22;48610;52.144;8.624;2023-04-03T13:24:21;8.60;84.80
62555;DHT22;48610;52.144;8.624;2023-04-03T13:27:22;8.60;86.50
62555;DHT22;48610;52.144;8.624;2023-04-03T13:30:29;8.40;81.80
62555;DHT22;48610;52.144;8.624;2023-04-03T13:33:32;8.70;85.00
62555;DHT22;48610;52.144;8.624;2023-04-03T13:36:42;9.30;83.80
62555;DHT22;48610;52.144;8.624;2023-04-03T13:39:44;9.50;82.60
62555;DHT22;48610;52.144;8.624;2023-04-03T13:42:45;9.70;85.80
62555;DHT22;48610;52.144;8.624;2023-04-03T13:49:18;9.50;80.90
62555;DHT22;48610;52.144;8.624;2023-04-03T13:52:29;9.70;79.20
62555;DHT22;48610;52.144;8.624;2023-04-03T13:55:33;9.80;85.00
62555;DHT22;48610;52.144;8.624;2023-04-03T13:58:36;10.30;88.90
62555;DHT22;48610;52.144;8.624;2023-04-03T14:07:45;10.60;77.50
62555;DHT22;48610;52.144;8.624;2023-04-03T14:10:46;10.80;83.90
62555;DHT22;48610;52.144;8.624;2023-04-03T14:13:48;9.90;76.90
62555;DHT22;48610;52.144;8.624;2023-04-03T14:16:55;10.20;81.80
62555;DHT22;48610;52.144;8.624;2023-04-03T14:19:57;10.40;75.10
62555;DHT22;48610;52.144;8.624;2023-04-03T14:22:58;9.70;75.80
62555;DHT22;48610;52.144;8.624;2023-04-03T14:25:59;9.60;77.00
62555;DHT22;48610;52.144;8.624;2023-04-03T14:29:00;9.60;77.10
62555;DHT22;48610;52.144;8.624;2023-04-03T14:32:01;9.30;75.70
62555;DHT22;48610;52.144;8.624;2023-04-03T14:35:02;9.60;78.90
62555;DHT22;48610;52.144;8.624;2023-04-03T14:38:11;10.00;79.70
62555;DHT22;48610;52.144;8.624;2023-04-03T14:41:14;10.40;80.10
62555;DHT22;48610;52.144;8.624;2023-04-03T14:44:16;10.50;82.00
62555;DHT22;48610;52.144;8.624;2023-04-03T14:47:21;10.30;81.60
62555;DHT22;48610;52.144;8.624;2023-04-03T14:50:24;10.10;77.80
62555;DHT22;48610;52.144;8.624;2023-04-03T14:53:26;9.60;76.70
62555;DHT22;48610;52.144;8.624;2023-04-03T14:56:28;9.60;80.10
62555;DHT22;48610;52.144;8.624;2023-04-03T14:59:30;9.60;73.80
62555;DHT22;48610;52.144;8.624;2023-04-03T15:02:34;9.60;74.00
62555;DHT22;48610;52.144;8.624;2023-04-03T15:05:35;9.90;74.10
62555;DHT22;48610;52.144;8.624;2023-04-03T15:08:37;10.10;81.20
62555;DHT22;48610;52.144;8.624;2023-04-03T15:11:38;9.80;75.50
62555;DHT22;48610;52.144;8.624;2023-04-03T15:14:38;9.90;76.70
62555;DHT22;48610;52.144;8.624;2023-04-03T15:17:39;9.90;74.30
62555;DHT22;48610;52.144;8.624;2023-04-03T15:20:40;9.90;75.00
62555;DHT22;48610;52.144;8.624;2023-04-03T15:23:41;10.00;80.00
62555;DHT22;48610;52.144;8.624;2023-04-03T15:26:42;9.90;77.90
62555;DHT22;48610;52.144;8.624;2023-04-03T15:29:43;9.70;78.70
62555;DHT22;48610;52.144;8.624;2023-04-03T15:32:44;9.60;80.10
62555;DHT22;48610;52.144;8.624;2023-04-03T15:35:45;9.50;79.00
62555;DHT22;48610;52.144;8.624;2023-04-03T15:38:46;9.30;78.60
62555;DHT22;48610;52.144;8.624;2023-04-03T15:41:47;9.40;74.30
62555;DHT22;48610;52.144;8.624;2023-04-03T15:44:47;9.50;76.80
62555;DHT22;48610;52.144;8.624;2023-04-03T15:47:48;9.60;79.50
62555;DHT22;48610;52.144;8.624;2023-04-03T15:50:49;9.70;76.50
62555;DHT22;48610;52.144;8.624;2023-04-03T15:53:49;9.50;70.90
62555;DHT22;48610;52.144;8.624;2023-04-03T15:56:50;9.30;73.80
62555;DHT22;48610;52.144;8.624;2023-04-03T15:59:51;9.20;75.50
62555;DHT22;48610;52.144;8.624;2023-04-03T16:02:55;9.00;74.20
62555;DHT22;48610;52.144;8.624;2023-04-03T16:05:57;9.20;77.00
62555;DHT22;48610;52.144;8.624;2023-04-03T16:08:58;9.30;76.70
62555;DHT22;48610;52.144;8.624;2023-04-03T16:11:59;9.40;74.10
62555;DHT22;48610;52.144;8.624;2023-04-03T16:15:01;9.50;77.80
62555;DHT22;48610;52.144;8.624;2023-04-03T16:18:01;9.50;76.00
62555;DHT22;48610;52.144;8.624;2023-04-03T16:21:02;9.30;82.30
62555;DHT22;48610;52.144;8.624;2023-04-03T16:24:03;9.40;75.50
62555;DHT22;48610;52.144;8.624;2023-04-03T16:27:05;9.30;75.60
62555;DHT22;48610;52.144;8.624;2023-04-03T16:30:06;9.20;73.50
62555;DHT22;48610;52.144;8.624;2023-04-03T16:33:07;9.00;76.40
62555;DHT22;48610;52.144;8.624;2023-04-03T16:36:08;9.00;79.60
62555;DHT22;48610;52.144;8.624;2023-04-03T16:39:09;8.80;77.40
62555;DHT22;48610;52.144;8.624;2023-04-03T16:42:10;8.60;78.90
62555;DHT22;48610;52.144;8.624;2023-04-03T16:45:11;8.40;78.30
62555;DHT22;48610;52.144;8.624;2023-04-03T16:48:11;8.30;79.70
62555;DHT22;48610;52.144;8.624;2023-04-03T16:51:12;8.40;79.10
62555;DHT22;48610;52.144;8.624;2023-04-03T16:54:13;8.60;80.80
62555;DHT22;48610;52.144;8.624;2023-04-03T16:57:14;8.70;79.70
62555;DHT22;48610;52.144;8.624;2023-04-03T17:00:15;8.80;81.50
62555;DHT22;48610;52.144;8.624;2023-04-03T17:03:16;8.70;81.90
62555;DHT22;48610;52.144;8.624;2023-04-03T17:06:19;8.60;82.10
62555;DHT22;48610;52.144;8.624;2023-04-03T17:09:19;8.60;81.20
62555;DHT22;48610;52.144;8.624;2023-04-03T17:12:21;8.60;78.20
62555;DHT22;48610;52.144;8.624;2023-04-03T17:15:23;8.40;79.20
62555;DHT22;48610;52.144;8.624;2023-04-03T17:18:25;8.40;78.90
62555;DHT22;48610;52.144;8.624;2023-04-03T17:21:26;8.50;79.40
62555;DHT22;48610;52.144;8.624;2023-04-03T17:24:27;8.30;80.00
62555;DHT22;48610;52.144;8.624;2023-04-03T17:27:28;8.20;79.70
62555;DHT22;48610;52.144;8.624;2023-04-03T17:30:29;8.10;78.60
62555;DHT22;48610;52.144;8.624;2023-04-03T17:33:30;8.10;80.40
62555;DHT22;48610;52.144;8.624;2023-04-03T17:36:32;8.10;82.00
62555;DHT22;48610;52.144;8.624;2023-04-03T17:39:33;8.30;80.70
62555;DHT22;48610;52.144;8.624;2023-04-03T17:42:34;8.20;81.30
62555;DHT22;48610;52.144;8.624;2023-04-03T17:45:35;8.10;81.00
62555;DHT22;48610;52.144;8.624;2023-04-03T17:48:37;8.00;82.60
62555;DHT22;48610;52.144;8.624;2023-04-03T17:51:38;7.90;83.90
62555;DHT22;48610;52.144;8.624;2023-04-03T17:54:38;7.90;83.00
62555;DHT22;48610;52.144;8.624;2023-04-03T17:57:39;7.80;79.40
62555;DHT22;48610;52.144;8.624;2023-04-03T18:00:40;7.70;81.50
62555;DHT22;48610;52.144;8.624;2023-04-03T18:03:41;7.60;83.50
62555;DHT22;48610;52.144;8.624;2023-04-03T18:06:45;7.60;82.40
62555;DHT22;48610;52.144;8.624;2023-04-03T18:09:47;7.70;82.50
62555;DHT22;48610;52.144;8.624;2023-04-03T18:12:48;7.70;81.70
62555;DHT22;48610;52.144;8.624;2023-04-03T18:15:49;7.60;82.50
62555;DHT22;48610;52.144;8.624;2023-04-03T18:18:50;7.60;82.40
62555;DHT22;48610;52.144;8.624;2023-04-03T18:21:54;7.60;83.40
62555;DHT22;48610;52.144;8.624;2023-04-03T18:24:56;7.60;84.00
62555;DHT22;48610;52.144;8.624;2023-04-03T18:27:57;7.60;83.90
62555;DHT22;48610;52.144;8.624;2023-04-03T18:30:59;7.60;84.50
62555;DHT22;48610;52.144;8.624;2023-04-03T18:34:01;7.70;83.30
62555;DHT22;48610;52.144;8.624;2023-04-03T18:37:01;7.80;84.00
62555;DHT22;48610;52.144;8.624;2023-04-03T18:40:02;7.70;82.90
62555;DHT22;48610;52.144;8.624;2023-04-03T18:43:03;7.50;84.00
62555;DHT22;48610;52.144;8.624;2023-04-03T18:46:05;7.30;84.80
62555;DHT22;48610;52.144;8.624;2023-04-03T18:49:07;7.30;85.30
62555;DHT22;48610;52.144;8.624;2023-04-03T18:52:09;7.30;84.00
62555;DHT22;48610;52.144;8.624;2023-04-03T18:55:10;7.40;84.90
62555;DHT22;48610;52.144;8.624;2023-04-03T18:58:12;7.50;83.90
62555;DHT22;48610;52.144;8.624;2023-04-03T19:01:13;7.50;85.30
62555;DHT22;48610;52.144;8.624;2023-04-03T19:04:14;7.50;85.40
62555;DHT22;48610;52.144;8.624;2023-04-03T19:07:15;7.50;86.10
62555;DHT22;48610;52.144;8.624;2023-04-03T19:10:16;7.40;86.70
62555;DHT22;48610;52.144;8.624;2023-04-03T19:13:17;7.40;86.30
62555;DHT22;48610;52.144;8.624;2023-04-03T19:16:17;7.30;88.00
62555;DHT22;48610;52.144;8.624;2023-04-03T19:19:18;7.20;88.50
62555;DHT22;48610;52.144;8.624;2023-04-03T19:22:18;7.20;88.00
62555;DHT22;48610;52.144;8.624;2023-04-03T19:25:19;7.20;87.30
62555;DHT22;48610;52.144;8.624;2023-04-03T19:28:20;7.20;87.90
62555;DHT22;48610;52.144;8.624;2023-04-03T19:31:21;7.20;88.40
62555;DHT22;48610;52.144;8.624;2023-04-03T19:34:22;7.10;87.70
62555;DHT22;48610;52.144;8.624;2023-04-03T19:37:23;7.20;88.60
62555;DHT22;48610;52.144;8.624;2023-04-03T19:40:24;7.10;88.50
62555;DHT22;48610;52.144;8.624;2023-04-03T19:43:25;7.10;88.00
62555;DHT22;48610;52.144;8.624;2023-04-03T19:46:27;7.00;88.60
62555;DHT22;48610;52.144;8.624;2023-04-03T19:49:29;7.00;88.70
62555;DHT22;48610;52.144;8.624;2023-04-03T19:52:29;6.30;91.70
62555;DHT22;48610;52.144;8.624;2023-04-03T19:55:30;6.50;92.70
62555;DHT22;48610;52.144;8.624;2023-04-03T19:58:30;6.70;91.60
62555;DHT22;48610;52.144;8.624;2023-04-03T20:01:31;6.90;91.10
62555;DHT22;48610;52.144;8.624;2023-04-03T20:04:34;6.80;90.70
62555;DHT22;48610;52.144;8.624;2023-04-03T20:07:34;6.90;90.50
62555;DHT22;48610;52.144;8.624;2023-04-03T20:10:35;6.90;90.60
62555;DHT22;48610;52.144;8.624;2023-04-03T20:13:39;6.90;90.20
62555;DHT22;48610;52.144;8.624;2023-04-03T20:16:40;6.90;90.50
62555;DHT22;48610;52.144;8.624;2023-04-03T20:19:41;6.90;91.00
62555;DHT22;48610;52.144;8.624;2023-04-03T20:22:42;6.10;92.30
62555;DHT22;48610;52.144;8.624;2023-04-03T20:25:44;5.80;93.30
62555;DHT22;48610;52.144;8.624;2023-04-03T20:28:45;5.40;94.90
62555;DHT22;48610;52.144;8.624;2023-04-03T20:31:45;5.20;96.50